Weather observations for the past three days for
Watauga County Hospital Heliport
Metric (Imperial)
Date Time (edt) Wind (kph) Vis. (km) Weather Sky Cond. Temperature (ºC) Relative Humidity Wind Chill (°C) Heat Index (°C) Pressure Precipitation (cm)
Air Dwpt 6 hour altimeter (cm) sea level (mb) 1 hr 3 hr 6 hr
Max. Min.
10 10:35 NW 19 16.09 NULL NULL 17.8 5.7 45% 76.45 0.0
10 10:15 W 15 16.09 NULL NULL 17.3 6.7 50% 76.45 0.0
10 09:55 W 15 16.09 NULL NULL 16.5 7.2 54% 76.45 0.0
10 09:35 W 19 16.09 NULL NULL 15.5 7.9 61% 76.45 0.0
10 09:15 W 15 16.09 NULL NULL 14.5 8.1 66% 76.45 0.0
10 08:55 W 17 16.09 NULL NULL 13.8 8.3 70% 76.43 0.0
10 08:35 NW 13 16.09 NULL NULL 13.2 8.6 74% 76.4 0.0
10 08:15 W 13 16.09 NULL NULL 13.1 8.9 76% 76.4 0.0
10 07:55 W 11 16.09 NULL NULL 12.3 8.8 12.3 6.8 79% 76.4 0.0
10 07:35 W 9 16.09 NULL NULL 11.7 9.1 84% 76.38 0.0
10 07:15 W 9 16.09 NULL NULL 10.6 9.9 95% 76.33 0.0
10 06:55 W 13 16.09 NULL NULL 10.1 10 99% 76.3 0.0
10 06:35 W 13 16.09 NULL NULL 10.3 9.9 97% 76.28 0.0
10 06:15 W 15 16.09 NULL NULL 10.2 10.2 100% 76.28 0.0
10 05:55 NW 13 16.09 NULL NULL 10.1 10.1 100% 76.25 0.0
10 05:35 NW 11 16.09 NULL NULL 9.2 9.2 100% 8 76.25 0.0
10 05:20 NW 7 16.09 NULL NULL 8.7 8.7 100% 8 76.25 0.0
10 04:55 W 9 16.09 NULL NULL 8.7 8.7 100% 7 76.23 0.0
10 04:35 W 6 16.09 NULL NULL 8.1 8.1 100% 76.2 0.0
10 04:15 Calm 16.09 NULL NULL 7.7 7.7 100% 76.2 0.0
10 03:55 W 7 16.09 NULL NULL 8.7 8.7 100% 8 76.17 0.0
10 03:35 Calm 16.09 NULL NULL 7.8 7.8 100% 76.17 0.0
10 03:15 Calm 16.09 NULL NULL 7.8 7.8 100% 76.15 0.0
10 02:55 Calm 16.09 NULL NULL 7.5 7.5 100% 76.17 0.0
10 02:35 Calm 11.27 NULL NULL 7.7 7.7 100% 76.17 0.0
10 02:15 Calm 16.09 NULL NULL 8.5 8.5 100% 76.17 0.0
10 01:55 Calm 16.09 NULL NULL 8.3 8.3 17.2 8.1 100% 76.17 0.0
10 01:35 Calm 16.09 NULL NULL 8.4 8.4 100% 76.2 0.0
10 01:15 Calm 16.09 NULL NULL 8.9 8.9 100% 76.17 0.0
10 00:55 Calm 16.09 NULL NULL 9.2 7.7 90% 76.2 0.0
10 00:35 Calm 16.09 NULL NULL 9.9 6.7 81% 76.17 0.0
10 00:15 W 9 16.09 NULL NULL 11.6 7.6 77% 76.17 0.0
09 23:55 W 7 16.09 NULL NULL 11.8 7.6 76% 76.17 0.0
09 23:35 NW 6 16.09 NULL NULL 11.7 7.5 76% 76.17 0.0
09 23:15 W 6 16.09 NULL NULL 12.4 7.6 73% 76.2 0.0
09 22:55 W 7 16.09 NULL NULL 12.5 7.6 72% 76.17 0.0
09 22:35 Calm 16.09 NULL NULL 11 8 82% 76.17 0.0
09 22:15 Calm 16.09 NULL NULL 10.9 7.6 80% 76.17 0.0
09 21:55 Calm 16.09 NULL NULL 11.7 7.9 78% 76.15 0.0
09 21:35 W 6 16.09 NULL NULL 12.3 8 75% 76.12 0.0
09 21:15 Calm 16.09 NULL NULL 13.3 7.7 69% 76.1 0.0
09 20:55 Calm 16.09 NULL NULL 14.6 7.5 63% 76.07 0.0
09 20:35 Calm 16.09 NULL NULL 16.4 7 54% 76.02 0.0
09 20:15 W 7 16.09 NULL NULL 17 6.9 52% 76 0.0
09 19:55 W 9 16.09 NULL NULL 17.3 6.6 21.7 17.3 50% 76 0.0
09 19:35 NW 9 16.09 NULL NULL 17.7 6.2 47% 76.02 0.0
09 19:15 NW 20 16.09 NULL NULL 18.1 5.8 45% 76 0.0
09 18:55 NW 22 G 28 16.09 NULL NULL 18.5 6.3 45% 75.97 0.0
09 18:35 NW 20 G 33 16.09 NULL NULL 18.5 6.4 45% 75.97 0.0
09 18:15 NW 20 G 33 16.09 NULL NULL 19.1 6.6 44% 75.95 0.0
09 17:55 NW 22 G 41 16.09 NULL NULL 19.8 6.4 42% 75.95 0.0
09 17:35 NW 26 G 39 16.09 NULL NULL 20 7.5 45% 75.95 0.0
09 17:15 NW 19 G 39 16.09 NULL NULL 20.2 7.1 43% 75.92 0.0
09 16:55 NW 24 G 35 16.09 NULL NULL 20.1 7 43% 75.92 0.0
09 16:35 NW 19 G 41 16.09 NULL NULL 20.1 6.7 42% 75.9 0.0
09 16:15 NW 17 G 28 16.09 NULL NULL 20.5 6.6 41% 75.9 0.0
09 15:55 NW 19 G 31 16.09 NULL NULL 20.3 6.7 41% 75.9 0.0
09 15:35 NW 19 G 37 16.09 NULL NULL 20.5 7.3 43% 75.9 0.0
09 15:15 N 22 G 30 16.09 NULL NULL 20.5 7.3 43% 75.9 0.0
09 14:55 N 15 16.09 NULL NULL 21.1 7.9 43% 75.9 0.0
09 14:35 E 13 G 28 16.09 NULL NULL 20.7 8.4 45% 75.9 0.0
09 14:15 Calm 16.09 NULL NULL 19.5 8.3 49% 75.9 0.0
09 13:35 S 7 16.09 NULL NULL 18.1 8.7 54% 75.92 0.0
09 13:15 SE 9 16.09 NULL NULL 17.2 9.2 60% 75.95 0.0
09 12:55 SW 11 16.09 NULL NULL 17.8 8.1 53% 75.97 0.0
09 12:35 S 6 16.09 NULL NULL 17.9 8.7 55% 75.95 0.0
09 12:15 SE 6 16.09 NULL NULL 17.6 9.6 60% 75.97 0.0
09 11:55 SE 9 16.09 NULL NULL 16.5 9.6 64% 76 0.0
09 11:35 Calm 16.09 NULL NULL 16.9 5.4 47% 76 0.0
09 11:15 NE 9 16.09 NULL NULL 17.5 8.6 56% 75.97 0.0
09 10:55 E 6 16.09 NULL NULL 16.6 8 57% 75.95 0.0
09 10:35 SE 7 16.09 NULL NULL 15.8 8.4 62% 75.95 0.0
09 10:15 S 6 16.09 NULL NULL 15.2 7.7 61% 75.95 0.0
09 09:55 S 11 16.09 NULL NULL 14.7 7.5 62% 76 0.0
09 09:15 SW 6 16.09 NULL NULL 13.2 8 71% 75.97 0.0
09 08:55 Calm 16.09 NULL NULL 11.7 7.4 75% 76 0.0
09 08:35 Calm 16.09 NULL NULL 10.2 8.9 92% 76.02 0.0
09 08:15 Calm 16.09 NULL NULL 8.2 8.2 100% 76.05 0.0
09 07:55 Calm 16.09 NULL NULL 7 7 11 4.6 100% 76.05 0.0
09 07:35 Calm 16.09 NULL NULL 6 6 100% 76.05 0.0
09 07:15 Calm 16.09 NULL NULL 5.6 5.6 100% 76.02 0.0
09 06:55 Calm 16.09 NULL NULL 5.1 5.1 100% 76 0.0
09 06:35 Calm 11.27 NULL NULL 4.9 4.9 100% 76 0.0
09 06:15 Calm 16.09 NULL NULL 5.1 5.1 100% 76 0.0
09 05:35 Calm 16.09 NULL NULL 5.1 5.1 100% 75.97 0.0
09 05:15 Calm 16.09 NULL NULL 6 6 100% 75.97 0.0
09 04:55 Calm 16.09 NULL NULL 6.9 6.9 100% 76 0.0
09 04:35 Calm 16.09 NULL NULL 7 7 100% 76 0.0
09 04:15 Calm 16.09 NULL NULL 7 6.9 99% 76 0.0
09 03:55 Calm 16.09 NULL NULL 7.7 7 95% 76.02 0.0
09 03:35 Calm 16.09 NULL NULL 8.3 6.1 86% 76.02 0.0
09 03:15 Calm 16.09 NULL NULL 9 6.8 86% 76.02 0.0
09 02:55 Calm 16.09 NULL NULL 10.1 6.6 79% 76.02 0.0
09 02:35 SW 13 16.09 NULL NULL 10.5 6.7 78% 76.05 0.0
09 02:15 Calm 16.09 NULL NULL 10.8 6.7 76% 76.07 0.0
09 01:55 S 11 16.09 NULL NULL 11 6.8 14.1 11 76% 76.1 0.0
09 01:35 SW 13 16.09 NULL NULL 11.2 6.8 75% 76.1 0.0
09 01:15 SW 7 16.09 NULL NULL 11.4 6.7 73% 76.12 0.0
09 00:55 Calm 16.09 NULL NULL 11.2 6.6 74% 76.15 0.0
09 00:35 S 7 16.09 NULL NULL 11.3 6.6 73% 76.12 0.0
09 00:15 W 6 16.09 NULL NULL 11.2 6.6 74% 76.15 0.0
08 23:55 Calm 16.09 NULL NULL 11.5 6.6 72% 76.17 0.0
08 23:35 Calm 16.09 NULL NULL 11.5 6.5 72% 76.17 0.0
08 23:15 Calm 16.09 NULL NULL 11.7 6.3 70% 76.17 0.0
08 22:55 SW 6 16.09 NULL NULL 12 6.3 68% 76.2 0.0
08 22:35 SW 6 16.09 NULL NULL 11.7 6.2 69% 76.2 0.0
08 22:15 S 9 16.09 NULL NULL 12 6.1 67% 76.2 0.0
08 21:55 SW 15 16.09 NULL NULL 12 6.1 67% 76.17 0.0
08 21:35 S 11 16.09 NULL NULL 12.3 6 66% 76.17 0.0
08 21:15 S 7 16.09 NULL NULL 12.4 6 65% 76.17 0.0
08 20:55 Calm 16.09 NULL NULL 12.6 5.8 64% 76.17 0.0
08 20:35 W 9 16.09 NULL NULL 13 5.7 61% 76.17 0.0
08 20:15 NE 6 16.09 NULL NULL 13.1 5.8 61% 76.15 0.0
08 19:55 Calm 16.09 NULL NULL 14 5.7 18.2 14 58% 76.15 0.0
08 19:35 S 6 16.09 NULL NULL 14.4 5.2 54% 76.12 0.0
08 19:15 SE 6 16.09 NULL NULL 14.3 5 54% 76.12 0.0
08 18:55 Calm 16.09 NULL NULL 15.1 4.5 49% 76.12 0.0
08 18:35 Calm 16.09 NULL NULL 16.4 3.9 44% 76.15 0.0
08 18:15 S 13 G 26 16.09 NULL NULL 16.4 3.1 41% 76.15 0.0
08 17:55 SW 11 16.09 NULL NULL 16.6 3.6 42% 76.1 0.0
08 17:35 S 6 16.09 NULL NULL 15.9 3.6 44% 76.07 0.0
08 17:15 SW 7 16.09 NULL NULL 16.7 3.2 41% 76.1 0.0
08 16:55 SW 11 16.09 NULL NULL 17 0.7 33% 76.1 0.0
08 16:35 S 7 16.09 NULL NULL 17.7 0.1 31% 76.12 0.0
08 16:15 S 17 16.09 NULL NULL 16.9 -0.4 31% 76.17 0.0
08 15:55 S 11 16.09 NULL NULL 17.6 -0.3 30% 76.17 0.0
08 15:35 SW 13 16.09 NULL NULL 17.7 -2.2 26% 76.2 0.0
08 15:15 W 7 16.09 NULL NULL 16.9 -3.3 25% 76.2 0.0
08 14:55 SW 11 16.09 NULL NULL 17.4 -1.9 27% 76.23 0.0
08 14:35 SW 6 16.09 NULL NULL 17.5 -3 25% 76.25 0.0
08 14:15 S 9 G 26 16.09 NULL NULL 17.3 -1.4 28% 76.28 0.0
08 13:55 SE 11 16.09 NULL NULL 16.5 -1 17.5 6 30% 76.28 0.0
08 13:35 SE 13 16.09 NULL NULL 16.6 -0.9 31% 76.3 0.0
08 13:15 SE 9 16.09 NULL NULL 16.1 -0.5 32% 76.3 0.0
08 12:55 Calm 16.09 NULL NULL 15.6 -3.4 27% 76.33 0.0
08 12:35 SE 9 16.09 NULL NULL 16.4 -0.4 32% 76.35 0.0
08 12:15 SE 6 16.09 NULL NULL 16 0.3 35% 76.35 0.0
08 11:55 S 6 16.09 NULL NULL 15.2 0.5 37% 76.38 0.0
08 11:35 E 9 16.09 NULL NULL 14.9 1.1 39% 76.38 0.0
08 11:15 SE 7 16.09 NULL NULL 14.3 0.3 39% 76.4 0.0
08 10:55 E 11 16.09 NULL NULL 13.5 0.2 40% 76.4 0.0
08 10:35 E 6 16.09 NULL NULL 13.1 -2.7 34% 76.4 0.0
08 10:15 Calm 16.09 NULL NULL 12.2 -2.7 36% 76.4 0.0
08 09:55 Calm 16.09 NULL NULL 11.3 -3.1 37% 76.4 0.0
08 09:35 NW 7 16.09 NULL NULL 10.1 -1.4 45% 76.38 0.0
08 09:15 NW 13 16.09 NULL NULL 9.5 -0.9 49% 8 76.38 0.0
08 08:35 W 7 16.09 NULL NULL 8 -0.7 55% 7 76.35 0.0
08 08:15 W 11 16.09 NULL NULL 7.4 0.1 60% 6 76.35 0.0
08 07:55 Calm 16.09 NULL NULL 6 2.4 8.1 4.5 78% 76.33 0.0
08 07:35 Calm 16.09 NULL NULL 5.1 2.2 82% 76.3 0.0
08 07:15 W 11 16.09 NULL NULL 5.6 0.5 70% 3 76.28 0.0
08 06:55 Calm 16.09 NULL NULL 4.6 1.4 80% 76.28 0.0
08 06:35 NW 9 16.09 NULL NULL 4.5 2.1 85% 3 76.25 0.0
08 06:15 W 19 16.09 NULL NULL 4.7 2.1 83% 1 76.23 0.0
08 05:55 W 15 16.09 NULL NULL 5.1 2.1 81% 2 76.2 0.0
08 05:35 W 13 16.09 NULL NULL 5.6 2.2 79% 3 76.2 0.0
08 05:15 NW 15 16.09 NULL NULL 5.7 2.3 79% 3 76.2 0.0
08 04:55 W 13 16.09 NULL NULL 6.2 1.9 74% 4 76.2 0.0
08 04:35 W 13 16.09 NULL NULL 6.5 1.6 71% 4 76.2 0.0
08 04:15 W 17 16.09 NULL NULL 6.5 2.1 74% 4 76.2 0.0
08 03:55 NW 17 16.09 NULL NULL 6.6 2.2 74% 4 76.17 0.0
08 03:35 W 19 16.09 NULL NULL 6.9 2.9 76% 4 76.17 0.0
08 03:15 NW 17 16.09 NULL NULL 7 3.9 81% 4 76.15 0.0
08 02:55 NW 19 16.09 NULL NULL 7.1 4.8 85% 4 76.17 0.0
08 02:35 NW 24 16.09 NULL NULL 7.3 5.4 88% 4 76.15 0.0
08 02:15 NW 20 16.09 NULL NULL 8 5.9 87% 5 76.17 0.0
08 01:55 NW 15 16.09 NULL NULL 8.2 5.8 9.7 7.6 85% 6 76.2 0.0
08 01:35 NW 13 16.09 NULL NULL 8.2 6.1 87% 6 76.2 0.0
08 01:15 W 11 16.09 NULL NULL 8.5 6.3 86% 7 76.2 0.0
08 00:55 NW 9 16.09 NULL NULL 8.3 6.3 87% 7 76.2 0.0
08 00:35 W 9 16.09 NULL NULL 8.3 6.3 87% 7 76.17 0.0
08 00:15 W 9 16.09 NULL NULL 8.2 6.2 87% 7 76.17 0.0
07 23:55 W 7 16.09 NULL NULL 8.1 6.1 87% 7 76.17 0.0
07 23:35 Calm 16.09 NULL NULL 8 6.1 88% 76.2 0.0
07 23:15 W 7 16.09 NULL NULL 7.8 6.1 89% 7 76.17 0.0
07 22:55 W 6 16.09 NULL NULL 7.6 5.7 88% 76.17 0.0
07 22:35 NW 6 16.09 NULL NULL 7.8 6 89% 76.17 0.0
07 22:15 W 6 16.09 NULL NULL 8 6 87% 76.15 0.0
07 21:55 W 7 16.09 NULL NULL 8 6.1 88% 7 76.12 0.0
07 21:35 W 7 16.09 NULL NULL 8.2 6.1 87% 7 76.1 0.0
07 21:15 W 9 16.09 NULL NULL 8.5 6 84% 7 76.1 0.0
07 20:55 W 9 16.09 NULL NULL 8.6 6 84% 7 76.07 0.0
07 20:35 W 9 16.09 NULL NULL 8.8 5.9 82% 8 76.05 0.0
07 20:15 W 7 16.09 NULL NULL 9.5 6.3 81% 9 76.05 0.0
07 19:55 NW 9 16.09 NULL NULL 9.2 6 15.8 9.1 81% 8 76.05 0.0
07 19:35 NW 15 G 20 16.09 NULL NULL 9.5 6 79% 8 76.05 0.0
07 19:15 W 13 G 28 16.09 NULL NULL 9.7 5.9 77% 8 76.05 0.0
07 18:55 NW 19 G 28 16.09 NULL NULL 10 6.4 79% 8 76.02 0.0
07 18:35 W 15 G 33 11.27 NULL NULL 9.1 6.5 84% 7 76.02 0.0
07 18:15 NW 22 G 41 16.09 NULL NULL 10.1 6.3 77% 76 0.0
07 17:55 NW 31 G 43 16.09 NULL NULL 10.7 7.2 79% 75.97 0.0
07 17:35 W 26 G 46 6.44 Haze NULL 10.3 7.4 82% 75.95 0.0
07 17:15 W 33 G 46 11.27 Breezy NULL 11.2 7.3 77% 75.92 0.0
07 16:55 W 30 G 46 16.09 NULL NULL 12.2 7.5 73% 75.9 0.0
07 16:35 NW 30 G 54 16.09 NULL NULL 13.1 7.5 69% 75.9 0.0
07 16:15 W 30 G 44 16.09 NULL NULL 13.9 7.9 67% 75.87 0.0
07 15:55 W 35 G 46 16.09 Breezy NULL 14 8.3 69% 75.87 0.0
07 15:35 NW 35 G 44 16.09 Breezy NULL 13.9 8.4 70% 75.9 0.0
07 15:15 NW 24 G 46 16.09 NULL NULL 15.2 9 67% 75.9 0.0
07 14:55 NW 33 G 43 16.09 Breezy NULL 15.4 9.1 66% 75.9 0.0
07 14:35 W 31 G 44 16.09 NULL NULL 15.5 9.5 68% 75.9 0.0
07 14:15 NW 20 G 41 16.09 NULL NULL 14.6 9.2 70% 75.92 0.0
07 13:55 NW 26 G 43 16.09 NULL NULL 14.9 9.6 18.2 13.6 71% 75.9 0.0
07 13:35 W 22 G 43 16.09 NULL NULL 15.5 10.2 71% 75.9 0.0
07 13:15 W 22 G 37 16.09 NULL NULL 14.9 10.4 75% 75.9 0.0
07 12:55 W 20 G 35 16.09 NULL NULL 15 10.8 76% 75.9 0.0
07 12:35 NW 20 G 33 16.09 NULL NULL 16 11.3 74% 75.9 0.0
07 12:15 W 19 G 31 16.09 NULL NULL 16.3 11 71% 75.9 0.0
07 11:55 W 19 G 35 16.09 NULL NULL 18.2 12.3 69% 75.87 0.0
07 11:35 W 13 16.09 NULL NULL 16.3 11.9 75% 75.87 0.0
07 11:15 W 17 16.09 NULL NULL 15.9 12.7 81% 75.9 0.0
Date Time (edt) Wind (kph) Vis. (km) Weather Sky Cond. Air Dwpt Max. Min. Relative Humidity Wind Chill (°C) Heat Index (°C) altimeter (cm) sea level (mb) 1 hr 3 hr 6 hr
6 hour
Temperature (ºC) Pressure Precipitation (cm)